sensor_id;sensor_type;location;lat;lon;timestamp;temperature;humidity
38263;DHT22;24054;50.128;19.730;2022-11-09T00:01:03;21.30;56.50
38263;DHT22;24054;50.128;19.730;2022-11-09T00:03:32;21.30;57.10
38263;DHT22;24054;50.128;19.730;2022-11-09T00:05:59;21.30;56.50
38263;DHT22;24054;50.128;19.730;2022-11-09T00:08:27;21.30;56.40
38263;DHT22;24054;50.128;19.730;2022-11-09T00:10:54;21.30;56.40
38263;DHT22;24054;50.128;19.730;2022-11-09T00:13:21;21.30;56.40
38263;DHT22;24054;50.128;19.730;2022-11-09T00:15:48;21.30;56.40
38263;DHT22;24054;50.128;19.730;2022-11-09T00:18:15;21.30;56.40
38263;DHT22;24054;50.128;19.730;2022-11-09T00:20:43;21.30;56.40
38263;DHT22;24054;50.128;19.730;2022-11-09T00:23:10;21.30;56.40
38263;DHT22;24054;50.128;19.730;2022-11-09T00:25:37;21.20;56.30
38263;DHT22;24054;50.128;19.730;2022-11-09T00:28:04;21.20;56.30
38263;DHT22;24054;50.128;19.730;2022-11-09T00:30:31;21.20;56.30
38263;DHT22;24054;50.128;19.730;2022-11-09T00:32:58;21.20;56.30
38263;DHT22;24054;50.128;19.730;2022-11-09T00:35:26;21.20;56.30
38263;DHT22;24054;50.128;19.730;2022-11-09T00:37:54;21.20;56.30
38263;DHT22;24054;50.128;19.730;2022-11-09T00:40:21;21.20;56.30
38263;DHT22;24054;50.128;19.730;2022-11-09T00:42:48;21.20;56.20
38263;DHT22;24054;50.128;19.730;2022-11-09T00:45:15;21.20;56.30
38263;DHT22;24054;50.128;19.730;2022-11-09T00:47:43;21.20;56.30
38263;DHT22;24054;50.128;19.730;2022-11-09T00:50:10;21.20;56.30
38263;DHT22;24054;50.128;19.730;2022-11-09T00:52:37;21.20;56.30
38263;DHT22;24054;50.128;19.730;2022-11-09T00:55:06;21.20;56.30
38263;DHT22;24054;50.128;19.730;2022-11-09T00:57:33;21.20;56.20
38263;DHT22;24054;50.128;19.730;2022-11-09T01:00:00;21.10;56.10
38263;DHT22;24054;50.128;19.730;2022-11-09T01:02:27;21.20;56.20
38263;DHT22;24054;50.128;19.730;2022-11-09T01:04:54;21.10;56.10
38263;DHT22;24054;50.128;19.730;2022-11-09T01:07:21;21.10;56.10
38263;DHT22;24054;50.128;19.730;2022-11-09T01:09:48;21.10;56.10
38263;DHT22;24054;50.128;19.730;2022-11-09T01:12:16;21.10;56.10
38263;DHT22;24054;50.128;19.730;2022-11-09T01:14:43;21.10;56.10
38263;DHT22;24054;50.128;19.730;2022-11-09T01:17:10;21.10;56.10
38263;DHT22;24054;50.128;19.730;2022-11-09T01:19:37;21.10;56.10
38263;DHT22;24054;50.128;19.730;2022-11-09T01:22:04;21.10;56.10
38263;DHT22;24054;50.128;19.730;2022-11-09T01:24:31;21.00;56.10
38263;DHT22;24054;50.128;19.730;2022-11-09T01:26:58;21.10;56.10
38263;DHT22;24054;50.128;19.730;2022-11-09T01:29:27;21.10;56.10
38263;DHT22;24054;50.128;19.730;2022-11-09T01:31:54;21.00;56.00
38263;DHT22;24054;50.128;19.730;2022-11-09T01:34:21;21.00;56.70
38263;DHT22;24054;50.128;19.730;2022-11-09T01:36:49;21.10;56.70
38263;DHT22;24054;50.128;19.730;2022-11-09T01:39:16;21.00;56.00
38263;DHT22;24054;50.128;19.730;2022-11-09T01:41:44;21.00;55.90
38263;DHT22;24054;50.128;19.730;2022-11-09T01:44:13;21.00;56.00
38263;DHT22;24054;50.128;19.730;2022-11-09T01:46:47;21.00;55.90
38263;DHT22;24054;50.128;19.730;2022-11-09T01:49:22;21.00;55.90
38263;DHT22;24054;50.128;19.730;2022-11-09T01:51:53;21.00;55.90
38263;DHT22;24054;50.128;19.730;2022-11-09T01:54:27;21.00;55.90
38263;DHT22;24054;50.128;19.730;2022-11-09T01:56:58;21.00;55.90
38263;DHT22;24054;50.128;19.730;2022-11-09T01:59:29;21.00;55.90
38263;DHT22;24054;50.128;19.730;2022-11-09T02:01:59;21.00;55.90
38263;DHT22;24054;50.128;19.730;2022-11-09T02:04:29;21.00;55.80
38263;DHT22;24054;50.128;19.730;2022-11-09T02:06:58;21.00;55.80
38263;DHT22;24054;50.128;19.730;2022-11-09T02:09:28;21.00;55.80
38263;DHT22;24054;50.128;19.730;2022-11-09T02:11:57;21.00;55.80
38263;DHT22;24054;50.128;19.730;2022-11-09T02:14:25;20.90;55.70
38263;DHT22;24054;50.128;19.730;2022-11-09T02:16:54;21.00;55.70
38263;DHT22;24054;50.128;19.730;2022-11-09T02:19:22;21.00;55.70
38263;DHT22;24054;50.128;19.730;2022-11-09T02:21:51;21.00;55.70
38263;DHT22;24054;50.128;19.730;2022-11-09T02:24:18;21.00;55.70
38263;DHT22;24054;50.128;19.730;2022-11-09T02:26:48;20.90;55.60
38263;DHT22;24054;50.128;19.730;2022-11-09T02:29:18;21.00;55.60
38263;DHT22;24054;50.128;19.730;2022-11-09T02:31:50;20.90;55.60
38263;DHT22;24054;50.128;19.730;2022-11-09T02:34:19;20.90;55.60
38263;DHT22;24054;50.128;19.730;2022-11-09T02:36:46;20.90;55.60
38263;DHT22;24054;50.128;19.730;2022-11-09T02:39:17;20.90;55.60
38263;DHT22;24054;50.128;19.730;2022-11-09T02:41:48;20.90;55.60
38263;DHT22;24054;50.128;19.730;2022-11-09T02:44:17;20.90;55.50
38263;DHT22;24054;50.128;19.730;2022-11-09T02:46:45;20.90;55.50
38263;DHT22;24054;50.128;19.730;2022-11-09T02:49:12;20.90;55.50
38263;DHT22;24054;50.128;19.730;2022-11-09T02:51:39;20.90;55.50
38263;DHT22;24054;50.128;19.730;2022-11-09T02:54:05;20.90;55.50
38263;DHT22;24054;50.128;19.730;2022-11-09T02:56:34;20.90;55.50
38263;DHT22;24054;50.128;19.730;2022-11-09T02:59:01;20.90;55.50
38263;DHT22;24054;50.128;19.730;2022-11-09T03:01:29;20.80;55.40
38263;DHT22;24054;50.128;19.730;2022-11-09T03:03:56;20.80;55.40
38263;DHT22;24054;50.128;19.730;2022-11-09T03:06:23;20.80;55.40
38263;DHT22;24054;50.128;19.730;2022-11-09T03:08:59;20.80;55.40
38263;DHT22;24054;50.128;19.730;2022-11-09T03:11:26;20.80;55.40
38263;DHT22;24054;50.128;19.730;2022-11-09T03:13:55;20.80;55.40
38263;DHT22;24054;50.128;19.730;2022-11-09T03:16:21;20.80;55.30
38263;DHT22;24054;50.128;19.730;2022-11-09T03:18:48;20.80;55.30
38263;DHT22;24054;50.128;19.730;2022-11-09T03:21:16;20.80;55.30
38263;DHT22;24054;50.128;19.730;2022-11-09T03:23:44;20.80;55.30
38263;DHT22;24054;50.128;19.730;2022-11-09T03:26:11;20.80;55.30
38263;DHT22;24054;50.128;19.730;2022-11-09T03:28:38;20.80;55.30
38263;DHT22;24054;50.128;19.730;2022-11-09T03:31:07;20.70;55.30
38263;DHT22;24054;50.128;19.730;2022-11-09T03:33:34;20.70;55.30
38263;DHT22;24054;50.128;19.730;2022-11-09T03:36:01;20.80;55.30
38263;DHT22;24054;50.128;19.730;2022-11-09T03:38:28;20.70;55.20
38263;DHT22;24054;50.128;19.730;2022-11-09T03:40:57;20.70;55.20
38263;DHT22;24054;50.128;19.730;2022-11-09T03:43:24;20.70;55.20
38263;DHT22;24054;50.128;19.730;2022-11-09T03:45:51;20.70;55.20
38263;DHT22;24054;50.128;19.730;2022-11-09T03:48:19;20.70;55.20
38263;DHT22;24054;50.128;19.730;2022-11-09T03:50:46;20.70;55.20
38263;DHT22;24054;50.128;19.730;2022-11-09T03:53:13;20.70;55.20
38263;DHT22;24054;50.128;19.730;2022-11-09T03:55:40;20.70;55.20
38263;DHT22;24054;50.128;19.730;2022-11-09T03:58:09;20.70;55.20
38263;DHT22;24054;50.128;19.730;2022-11-09T04:00:36;20.70;55.20
38263;DHT22;24054;50.128;19.730;2022-11-09T04:03:03;20.70;55.20
38263;DHT22;24054;50.128;19.730;2022-11-09T04:05:32;20.70;55.20
38263;DHT22;24054;50.128;19.730;2022-11-09T04:07:59;20.70;55.20
38263;DHT22;24054;50.128;19.730;2022-11-09T04:10:26;20.70;55.20
38263;DHT22;24054;50.128;19.730;2022-11-09T04:12:53;20.70;55.20
38263;DHT22;24054;50.128;19.730;2022-11-09T04:15:20;20.70;55.20
38263;DHT22;24054;50.128;19.730;2022-11-09T04:17:54;20.70;55.20
38263;DHT22;24054;50.128;19.730;2022-11-09T04:20:21;20.70;55.20
38263;DHT22;24054;50.128;19.730;2022-11-09T04:22:55;20.70;55.20
38263;DHT22;24054;50.128;19.730;2022-11-09T04:25:22;20.60;55.20
38263;DHT22;24054;50.128;19.730;2022-11-09T04:27:53;20.60;55.10
38263;DHT22;24054;50.128;19.730;2022-11-09T04:30:21;20.60;55.10
38263;DHT22;24054;50.128;19.730;2022-11-09T04:32:48;20.60;55.10
38263;DHT22;24054;50.128;19.730;2022-11-09T04:35:15;20.60;55.10
38263;DHT22;24054;50.128;19.730;2022-11-09T04:37:42;20.60;55.10
38263;DHT22;24054;50.128;19.730;2022-11-09T04:40:11;20.60;55.10
38263;DHT22;24054;50.128;19.730;2022-11-09T04:42:38;20.60;55.20
38263;DHT22;24054;50.128;19.730;2022-11-09T04:45:06;20.60;55.10
38263;DHT22;24054;50.128;19.730;2022-11-09T04:47:33;20.60;55.10
38263;DHT22;24054;50.128;19.730;2022-11-09T04:50:00;20.60;55.10
38263;DHT22;24054;50.128;19.730;2022-11-09T04:52:27;20.60;55.10
38263;DHT22;24054;50.128;19.730;2022-11-09T04:54:54;20.60;55.10
38263;DHT22;24054;50.128;19.730;2022-11-09T04:57:23;20.60;55.10
38263;DHT22;24054;50.128;19.730;2022-11-09T04:59:50;20.50;55.00
38263;DHT22;24054;50.128;19.730;2022-11-09T05:02:16;20.60;55.10
38263;DHT22;24054;50.128;19.730;2022-11-09T05:04:43;20.60;55.10
38263;DHT22;24054;50.128;19.730;2022-11-09T05:07:10;20.50;55.00
38263;DHT22;24054;50.128;19.730;2022-11-09T05:09:37;20.50;55.00
38263;DHT22;24054;50.128;19.730;2022-11-09T05:12:05;20.50;55.00
38263;DHT22;24054;50.128;19.730;2022-11-09T05:14:33;20.50;55.00
38263;DHT22;24054;50.128;19.730;2022-11-09T05:17:00;20.50;55.00
38263;DHT22;24054;50.128;19.730;2022-11-09T05:19:27;20.50;55.00
38263;DHT22;24054;50.128;19.730;2022-11-09T05:21:54;20.50;55.00
38263;DHT22;24054;50.128;19.730;2022-11-09T05:24:21;20.50;55.00
38263;DHT22;24054;50.128;19.730;2022-11-09T05:26:47;20.50;55.00
38263;DHT22;24054;50.128;19.730;2022-11-09T05:29:14;20.50;55.00
38263;DHT22;24054;50.128;19.730;2022-11-09T05:31:43;20.50;55.00
38263;DHT22;24054;50.128;19.730;2022-11-09T05:34:15;20.50;55.00
38263;DHT22;24054;50.128;19.730;2022-11-09T05:36:42;20.50;55.00
38263;DHT22;24054;50.128;19.730;2022-11-09T05:39:09;20.50;55.00
38263;DHT22;24054;50.128;19.730;2022-11-09T05:41:36;20.50;55.00
38263;DHT22;24054;50.128;19.730;2022-11-09T05:44:03;20.50;54.90
38263;DHT22;24054;50.128;19.730;2022-11-09T05:46:30;20.50;54.90
38263;DHT22;24054;50.128;19.730;2022-11-09T05:48:59;20.50;54.90
38263;DHT22;24054;50.128;19.730;2022-11-09T05:51:26;20.50;55.00
38263;DHT22;24054;50.128;19.730;2022-11-09T05:53:53;20.50;54.90
38263;DHT22;24054;50.128;19.730;2022-11-09T05:56:21;20.50;55.00
38263;DHT22;24054;50.128;19.730;2022-11-09T05:58:48;20.40;54.90
38263;DHT22;24054;50.128;19.730;2022-11-09T06:01:16;20.40;54.90
38263;DHT22;24054;50.128;19.730;2022-11-09T06:03:44;20.40;54.90
38263;DHT22;24054;50.128;19.730;2022-11-09T06:06:14;20.40;54.90
38263;DHT22;24054;50.128;19.730;2022-11-09T06:08:42;20.40;55.00
38263;DHT22;24054;50.128;19.730;2022-11-09T06:11:10;20.40;55.10
38263;DHT22;24054;50.128;19.730;2022-11-09T06:13:37;20.40;55.20
38263;DHT22;24054;50.128;19.730;2022-11-09T06:16:05;20.40;55.50
38263;DHT22;24054;50.128;19.730;2022-11-09T06:18:34;20.50;56.40
38263;DHT22;24054;50.128;19.730;2022-11-09T06:21:03;20.50;55.90
38263;DHT22;24054;50.128;19.730;2022-11-09T06:23:32;20.60;56.10
38263;DHT22;24054;50.128;19.730;2022-11-09T06:26:03;20.60;56.10
38263;DHT22;24054;50.128;19.730;2022-11-09T06:28:31;20.70;56.30
38263;DHT22;24054;50.128;19.730;2022-11-09T06:30:59;20.70;56.40
38263;DHT22;24054;50.128;19.730;2022-11-09T06:33:29;20.70;56.60
38263;DHT22;24054;50.128;19.730;2022-11-09T06:35:57;20.80;56.70
38263;DHT22;24054;50.128;19.730;2022-11-09T06:38:24;20.80;56.80
38263;DHT22;24054;50.128;19.730;2022-11-09T06:40:54;20.90;56.90
38263;DHT22;24054;50.128;19.730;2022-11-09T06:43:22;20.90;56.90
38263;DHT22;24054;50.128;19.730;2022-11-09T06:45:50;21.00;56.90
38263;DHT22;24054;50.128;19.730;2022-11-09T06:48:17;21.00;57.00
38263;DHT22;24054;50.128;19.730;2022-11-09T06:50:44;21.00;57.30
38263;DHT22;24054;50.128;19.730;2022-11-09T06:53:13;21.10;57.80
38263;DHT22;24054;50.128;19.730;2022-11-09T06:55:41;21.10;58.00
38263;DHT22;24054;50.128;19.730;2022-11-09T06:58:11;21.20;58.20
38263;DHT22;24054;50.128;19.730;2022-11-09T07:00:40;21.20;58.20
38263;DHT22;24054;50.128;19.730;2022-11-09T07:03:12;21.20;58.30
38263;DHT22;24054;50.128;19.730;2022-11-09T07:05:39;21.30;58.40
38263;DHT22;24054;50.128;19.730;2022-11-09T07:08:06;21.30;58.50
38263;DHT22;24054;50.128;19.730;2022-11-09T07:10:34;21.40;58.60
38263;DHT22;24054;50.128;19.730;2022-11-09T07:13:01;21.40;58.70
38263;DHT22;24054;50.128;19.730;2022-11-09T07:15:33;21.40;58.50
38263;DHT22;24054;50.128;19.730;2022-11-09T07:18:01;21.40;58.60
38263;DHT22;24054;50.128;19.730;2022-11-09T07:20:28;21.50;58.60
38263;DHT22;24054;50.128;19.730;2022-11-09T07:22:56;21.50;58.60
38263;DHT22;24054;50.128;19.730;2022-11-09T07:25:23;21.60;58.50
38263;DHT22;24054;50.128;19.730;2022-11-09T07:27:54;21.60;58.50
38263;DHT22;24054;50.128;19.730;2022-11-09T07:30:21;21.60;58.40
38263;DHT22;24054;50.128;19.730;2022-11-09T07:32:49;21.70;58.40
38263;DHT22;24054;50.128;19.730;2022-11-09T07:35:16;21.70;58.30
38263;DHT22;24054;50.128;19.730;2022-11-09T07:37:43;21.70;58.20
38263;DHT22;24054;50.128;19.730;2022-11-09T07:40:11;21.80;58.10
38263;DHT22;24054;50.128;19.730;2022-11-09T07:42:39;21.80;58.00
38263;DHT22;24054;50.128;19.730;2022-11-09T07:45:06;21.90;58.00
38263;DHT22;24054;50.128;19.730;2022-11-09T07:47:33;21.90;57.90
38263;DHT22;24054;50.128;19.730;2022-11-09T07:50:02;22.00;57.80
38263;DHT22;24054;50.128;19.730;2022-11-09T07:52:29;22.00;57.70
38263;DHT22;24054;50.128;19.730;2022-11-09T07:54:56;22.00;57.50
38263;DHT22;24054;50.128;19.730;2022-11-09T07:57:23;22.10;57.40
38263;DHT22;24054;50.128;19.730;2022-11-09T07:59:50;22.10;57.40
38263;DHT22;24054;50.128;19.730;2022-11-09T08:02:18;22.10;57.30
38263;DHT22;24054;50.128;19.730;2022-11-09T08:04:45;22.20;57.20
38263;DHT22;24054;50.128;19.730;2022-11-09T08:07:13;22.20;57.00
38263;DHT22;24054;50.128;19.730;2022-11-09T08:09:40;22.30;57.00
38263;DHT22;24054;50.128;19.730;2022-11-09T08:12:07;22.30;57.60
38263;DHT22;24054;50.128;19.730;2022-11-09T08:14:34;22.40;56.90
38263;DHT22;24054;50.128;19.730;2022-11-09T08:17:01;22.30;56.80
38263;DHT22;24054;50.128;19.730;2022-11-09T08:19:28;22.40;56.70
38263;DHT22;24054;50.128;19.730;2022-11-09T08:21:55;22.40;56.60
38263;DHT22;24054;50.128;19.730;2022-11-09T08:24:24;22.50;56.60
38263;DHT22;24054;50.128;19.730;2022-11-09T08:26:51;22.50;56.50
38263;DHT22;24054;50.128;19.730;2022-11-09T08:29:18;22.50;56.40
38263;DHT22;24054;50.128;19.730;2022-11-09T08:31:47;22.60;56.60
38263;DHT22;24054;50.128;19.730;2022-11-09T08:34:14;22.60;56.60
38263;DHT22;24054;50.128;19.730;2022-11-09T08:36:42;22.60;56.60
38263;DHT22;24054;50.128;19.730;2022-11-09T08:39:09;22.70;56.70
38263;DHT22;24054;50.128;19.730;2022-11-09T08:41:37;22.80;56.90
38263;DHT22;24054;50.128;19.730;2022-11-09T08:44:04;22.70;56.90
38263;DHT22;24054;50.128;19.730;2022-11-09T08:46:31;22.80;57.00
38263;DHT22;24054;50.128;19.730;2022-11-09T08:48:58;22.80;57.00
38263;DHT22;24054;50.128;19.730;2022-11-09T08:51:26;22.90;57.10
38263;DHT22;24054;50.128;19.730;2022-11-09T08:53:54;22.90;57.10
38263;DHT22;24054;50.128;19.730;2022-11-09T08:56:21;22.90;57.00
38263;DHT22;24054;50.128;19.730;2022-11-09T08:58:49;23.00;57.00
38263;DHT22;24054;50.128;19.730;2022-11-09T09:01:17;23.00;56.90
38263;DHT22;24054;50.128;19.730;2022-11-09T09:03:44;23.00;56.90
38263;DHT22;24054;50.128;19.730;2022-11-09T09:06:15;23.00;56.90
38263;DHT22;24054;50.128;19.730;2022-11-09T09:08:42;23.10;56.80
38263;DHT22;24054;50.128;19.730;2022-11-09T09:11:09;23.10;56.80
38263;DHT22;24054;50.128;19.730;2022-11-09T09:13:36;23.10;56.70
38263;DHT22;24054;50.128;19.730;2022-11-09T09:16:12;23.20;56.60
38263;DHT22;24054;50.128;19.730;2022-11-09T09:18:40;23.20;56.50
38263;DHT22;24054;50.128;19.730;2022-11-09T09:21:08;23.20;56.20
38263;DHT22;24054;50.128;19.730;2022-11-09T09:23:35;23.20;55.50
38263;DHT22;24054;50.128;19.730;2022-11-09T09:26:02;23.20;55.10
38263;DHT22;24054;50.128;19.730;2022-11-09T09:28:30;23.20;55.00
38263;DHT22;24054;50.128;19.730;2022-11-09T09:30:57;23.30;55.00
38263;DHT22;24054;50.128;19.730;2022-11-09T09:33:27;23.30;54.90
38263;DHT22;24054;50.128;19.730;2022-11-09T09:35:55;23.30;54.90
38263;DHT22;24054;50.128;19.730;2022-11-09T09:38:23;23.30;54.90
38263;DHT22;24054;50.128;19.730;2022-11-09T09:40:56;23.30;54.80
38263;DHT22;24054;50.128;19.730;2022-11-09T09:43:29;23.30;54.80
38263;DHT22;24054;50.128;19.730;2022-11-09T09:45:57;23.20;54.70
38263;DHT22;24054;50.128;19.730;2022-11-09T09:48:34;23.20;54.80
38263;DHT22;24054;50.128;19.730;2022-11-09T09:51:07;23.20;54.80
38263;DHT22;24054;50.128;19.730;2022-11-09T09:53:42;23.20;54.80
38263;DHT22;24054;50.128;19.730;2022-11-09T09:56:12;23.20;54.80
38263;DHT22;24054;50.128;19.730;2022-11-09T09:58:43;23.20;54.90
38263;DHT22;24054;50.128;19.730;2022-11-09T10:01:15;23.20;54.90
38263;DHT22;24054;50.128;19.730;2022-11-09T10:03:46;23.10;54.90
38263;DHT22;24054;50.128;19.730;2022-11-09T10:06:27;23.10;54.90
38263;DHT22;24054;50.128;19.730;2022-11-09T10:09:08;23.10;55.00
38263;DHT22;24054;50.128;19.730;2022-11-09T10:11:43;23.10;55.00
38263;DHT22;24054;50.128;19.730;2022-11-09T10:14:47;23.00;55.00
38263;DHT22;24054;50.128;19.730;2022-11-09T10:17:24;23.00;55.10
38263;DHT22;24054;50.128;19.730;2022-11-09T10:20:06;23.00;55.20
38263;DHT22;24054;50.128;19.730;2022-11-09T10:22:43;23.00;55.30
38263;DHT22;24054;50.128;19.730;2022-11-09T10:25:18;22.90;55.40
38263;DHT22;24054;50.128;19.730;2022-11-09T10:27:50;22.90;55.50
38263;DHT22;24054;50.128;19.730;2022-11-09T10:30:19;22.90;55.50
38263;DHT22;24054;50.128;19.730;2022-11-09T10:32:49;22.90;55.60
38263;DHT22;24054;50.128;19.730;2022-11-09T10:35:20;22.90;55.70
38263;DHT22;24054;50.128;19.730;2022-11-09T10:37:51;22.90;55.70
38263;DHT22;24054;50.128;19.730;2022-11-09T10:40:21;22.90;55.80
38263;DHT22;24054;50.128;19.730;2022-11-09T10:42:52;22.90;55.80
38263;DHT22;24054;50.128;19.730;2022-11-09T10:45:27;22.90;55.90
38263;DHT22;24054;50.128;19.730;2022-11-09T10:47:54;22.90;55.80
38263;DHT22;24054;50.128;19.730;2022-11-09T10:50:28;23.00;55.80
38263;DHT22;24054;50.128;19.730;2022-11-09T10:53:18;23.00;55.80
38263;DHT22;24054;50.128;19.730;2022-11-09T10:55:50;23.00;55.80
38263;DHT22;24054;50.128;19.730;2022-11-09T10:58:27;23.00;55.70
38263;DHT22;24054;50.128;19.730;2022-11-09T11:00:59;23.00;55.70
38263;DHT22;24054;50.128;19.730;2022-11-09T11:03:27;23.10;55.80
38263;DHT22;24054;50.128;19.730;2022-11-09T11:06:00;23.10;55.80
38263;DHT22;24054;50.128;19.730;2022-11-09T11:08:35;23.10;55.70
38263;DHT22;24054;50.128;19.730;2022-11-09T11:11:23;23.20;55.70
38263;DHT22;24054;50.128;19.730;2022-11-09T11:14:05;23.20;55.60
38263;DHT22;24054;50.128;19.730;2022-11-09T11:16:36;23.20;55.60
38263;DHT22;24054;50.128;19.730;2022-11-09T11:19:04;23.30;55.60
38263;DHT22;24054;50.128;19.730;2022-11-09T11:21:33;23.30;55.50
38263;DHT22;24054;50.128;19.730;2022-11-09T11:24:11;23.40;55.50
38263;DHT22;24054;50.128;19.730;2022-11-09T11:26:47;23.40;55.50
38263;DHT22;24054;50.128;19.730;2022-11-09T11:29:34;23.40;55.40
38263;DHT22;24054;50.128;19.730;2022-11-09T11:32:04;23.50;55.40
38263;DHT22;24054;50.128;19.730;2022-11-09T11:34:34;23.50;55.40
38263;DHT22;24054;50.128;19.730;2022-11-09T11:37:14;23.60;55.30
38263;DHT22;24054;50.128;19.730;2022-11-09T11:39:57;23.60;55.40
38263;DHT22;24054;50.128;19.730;2022-11-09T11:42:55;23.60;55.30
38263;DHT22;24054;50.128;19.730;2022-11-09T11:45:27;23.70;55.20
38263;DHT22;24054;50.128;19.730;2022-11-09T11:48:18;23.70;55.20
38263;DHT22;24054;50.128;19.730;2022-11-09T11:50:51;23.70;55.10
38263;DHT22;24054;50.128;19.730;2022-11-09T11:53:41;23.80;55.30
38263;DHT22;24054;50.128;19.730;2022-11-09T11:56:31;23.80;55.20
38263;DHT22;24054;50.128;19.730;2022-11-09T11:59:30;23.80;55.30
38263;DHT22;24054;50.128;19.730;2022-11-09T12:02:19;23.80;55.20
38263;DHT22;24054;50.128;19.730;2022-11-09T12:05:19;23.80;55.20
38263;DHT22;24054;50.128;19.730;2022-11-09T12:07:51;23.90;55.20
38263;DHT22;24054;50.128;19.730;2022-11-09T12:10:33;23.80;55.00
38263;DHT22;24054;50.128;19.730;2022-11-09T12:13:11;23.80;55.10
38263;DHT22;24054;50.128;19.730;2022-11-09T12:15:51;23.90;55.10
38263;DHT22;24054;50.128;19.730;2022-11-09T12:18:31;23.90;55.70
38263;DHT22;24054;50.128;19.730;2022-11-09T12:21:10;23.90;55.00
38263;DHT22;24054;50.128;19.730;2022-11-09T12:23:50;23.90;55.00
38263;DHT22;24054;50.128;19.730;2022-11-09T12:26:28;23.90;54.90
38263;DHT22;24054;50.128;19.730;2022-11-09T12:29:09;23.90;55.00
38263;DHT22;24054;50.128;19.730;2022-11-09T12:31:47;23.90;55.00
38263;DHT22;24054;50.128;19.730;2022-11-09T12:34:19;23.90;54.90
38263;DHT22;24054;50.128;19.730;2022-11-09T12:36:52;23.90;54.90
38263;DHT22;24054;50.128;19.730;2022-11-09T12:39:25;23.90;54.90
38263;DHT22;24054;50.128;19.730;2022-11-09T12:41:59;23.90;54.90
38263;DHT22;24054;50.128;19.730;2022-11-09T12:44:30;23.90;54.90
38263;DHT22;24054;50.128;19.730;2022-11-09T12:47:02;23.90;54.60
38263;DHT22;24054;50.128;19.730;2022-11-09T12:49:35;23.90;54.30
38263;DHT22;24054;50.128;19.730;2022-11-09T12:52:04;23.80;54.20
38263;DHT22;24054;50.128;19.730;2022-11-09T12:54:33;23.80;54.30
38263;DHT22;24054;50.128;19.730;2022-11-09T12:57:05;23.80;54.20
38263;DHT22;24054;50.128;19.730;2022-11-09T12:59:35;23.80;54.30
38263;DHT22;24054;50.128;19.730;2022-11-09T13:02:04;23.80;54.30
38263;DHT22;24054;50.128;19.730;2022-11-09T13:04:31;23.80;54.30
38263;DHT22;24054;50.128;19.730;2022-11-09T13:07:17;23.80;54.30
38263;DHT22;24054;50.128;19.730;2022-11-09T13:09:55;23.80;54.30
38263;DHT22;24054;50.128;19.730;2022-11-09T13:12:32;23.80;54.40
38263;DHT22;24054;50.128;19.730;2022-11-09T13:15:21;23.80;54.40
38263;DHT22;24054;50.128;19.730;2022-11-09T13:17:57;23.70;54.40
38263;DHT22;24054;50.128;19.730;2022-11-09T13:20:45;23.70;54.40
38263;DHT22;24054;50.128;19.730;2022-11-09T13:23:32;23.70;54.50
38263;DHT22;24054;50.128;19.730;2022-11-09T13:26:01;23.70;54.60
38263;DHT22;24054;50.128;19.730;2022-11-09T13:28:48;23.60;54.50
38263;DHT22;24054;50.128;19.730;2022-11-09T13:31:59;23.70;54.60
38263;DHT22;24054;50.128;19.730;2022-11-09T13:34:41;23.60;54.70
38263;DHT22;24054;50.128;19.730;2022-11-09T13:37:46;23.60;54.90
38263;DHT22;24054;50.128;19.730;2022-11-09T13:40:39;23.60;55.00
38263;DHT22;24054;50.128;19.730;2022-11-09T13:43:15;23.60;55.10
38263;DHT22;24054;50.128;19.730;2022-11-09T13:45:45;23.50;55.10
38263;DHT22;24054;50.128;19.730;2022-11-09T13:48:41;23.50;55.20
38263;DHT22;24054;50.128;19.730;2022-11-09T13:51:10;23.50;55.30
38263;DHT22;24054;50.128;19.730;2022-11-09T13:53:53;23.50;55.40
38263;DHT22;24054;50.128;19.730;2022-11-09T13:56:32;23.40;55.40
38263;DHT22;24054;50.128;19.730;2022-11-09T13:59:06;23.40;55.40
38263;DHT22;24054;50.128;19.730;2022-11-09T14:01:48;23.40;55.40
38263;DHT22;24054;50.128;19.730;2022-11-09T14:04:24;23.40;55.70
38263;DHT22;24054;50.128;19.730;2022-11-09T14:07:02;23.30;56.20
38263;DHT22;24054;50.128;19.730;2022-11-09T14:09:37;23.30;56.10
38263;DHT22;24054;50.128;19.730;2022-11-09T14:12:21;23.30;56.20
38263;DHT22;24054;50.128;19.730;2022-11-09T14:15:05;23.30;56.10
38263;DHT22;24054;50.128;19.730;2022-11-09T14:17:44;23.30;56.10
38263;DHT22;24054;50.128;19.730;2022-11-09T14:20:22;23.30;56.10
38263;DHT22;24054;50.128;19.730;2022-11-09T14:22:51;23.20;55.10
38263;DHT22;24054;50.128;19.730;2022-11-09T14:25:21;23.20;55.00
38263;DHT22;24054;50.128;19.730;2022-11-09T14:27:50;23.10;55.40
38263;DHT22;24054;50.128;19.730;2022-11-09T14:30:23;23.10;55.50
38263;DHT22;24054;50.128;19.730;2022-11-09T14:32:53;23.10;55.60
38263;DHT22;24054;50.128;19.730;2022-11-09T14:35:23;23.10;55.80
38263;DHT22;24054;50.128;19.730;2022-11-09T14:37:52;23.10;55.90
38263;DHT22;24054;50.128;19.730;2022-11-09T14:40:21;23.00;55.90
38263;DHT22;24054;50.128;19.730;2022-11-09T14:42:52;23.00;56.00
38263;DHT22;24054;50.128;19.730;2022-11-09T14:45:20;23.00;56.10
38263;DHT22;24054;50.128;19.730;2022-11-09T14:47:54;23.00;56.10
38263;DHT22;24054;50.128;19.730;2022-11-09T14:50:25;22.90;56.10
38263;DHT22;24054;50.128;19.730;2022-11-09T14:52:53;22.90;56.20
38263;DHT22;24054;50.128;19.730;2022-11-09T14:55:22;22.90;56.30
38263;DHT22;24054;50.128;19.730;2022-11-09T14:57:52;22.90;56.40
38263;DHT22;24054;50.128;19.730;2022-11-09T15:00:29;22.90;56.60
38263;DHT22;24054;50.128;19.730;2022-11-09T15:03:18;22.80;56.60
38263;DHT22;24054;50.128;19.730;2022-11-09T15:05:47;22.80;56.70
38263;DHT22;24054;50.128;19.730;2022-11-09T15:08:19;22.80;56.70
38263;DHT22;24054;50.128;19.730;2022-11-09T15:10:48;22.80;56.80
38263;DHT22;24054;50.128;19.730;2022-11-09T15:13:15;22.80;56.90
38263;DHT22;24054;50.128;19.730;2022-11-09T15:15:49;22.80;57.00
38263;DHT22;24054;50.128;19.730;2022-11-09T15:18:29;22.70;57.00
38263;DHT22;24054;50.128;19.730;2022-11-09T15:21:13;22.70;57.00
38263;DHT22;24054;50.128;19.730;2022-11-09T15:23:42;22.70;57.00
38263;DHT22;24054;50.128;19.730;2022-11-09T15:26:26;22.70;57.00
38263;DHT22;24054;50.128;19.730;2022-11-09T15:28:56;22.60;57.10
38263;DHT22;24054;50.128;19.730;2022-11-09T15:31:23;22.60;57.10
38263;DHT22;24054;50.128;19.730;2022-11-09T15:33:55;22.60;57.10
38263;DHT22;24054;50.128;19.730;2022-11-09T15:36:29;22.60;57.20
38263;DHT22;24054;50.128;19.730;2022-11-09T15:39:01;22.60;57.20